Avelgem, Belgium
Current Conditions -  °F | °C
As of 7:00 PM on Friday 24 Oct 2014 (Local Time) from LFQQ Reporting Station
Light Rain Light Rain  
Wind Chill: 54°   Ceiling: 400
Heat Index: 54°   Visibility: 1.5mi
Dew Point: 52°   Wind: 10mph
Humidity: 94%   Direction: 190°S
Pressure: 30"   Gusts: NA
Location:  50.78°N, 3.45°E
Report Text: LFQQ 241700Z 19009KT 2500 -RADZ OVC004 12/11 Q1016 TEMPO2000 RADZ OVC004
Loading
Personal Weather Stations






























Interactive Weather Map
Tropical Storm Tracking
New forecast layout! Learn more

10-Day Weather Forecast

Advertisements
Track Severe Weather on mobile